createdAt,value
2022-08-14T00:02:15.911Z,11.55
2022-08-14T00:04:45.084Z,10.60
2022-08-14T00:07:14.603Z,10.88
2022-08-14T00:10:01.717Z,11.35
2022-08-14T00:12:39.407Z,12.35
2022-08-14T00:15:24.960Z,11.50
2022-08-14T00:17:53.885Z,12.80
2022-08-14T00:20:31.115Z,12.00
2022-08-14T00:23:14.528Z,13.05
2022-08-14T00:26:06.224Z,11.88
2022-08-14T00:28:37.168Z,12.38
2022-08-14T00:31:07.984Z,11.75
2022-08-14T00:33:51.503Z,11.75
2022-08-14T00:36:37.694Z,12.35
2022-08-14T00:39:14.307Z,11.75
2022-08-14T00:41:42.712Z,11.48
2022-08-14T00:44:10.852Z,12.20
2022-08-14T00:46:41.024Z,11.40
2022-08-14T00:49:11.610Z,11.57
2022-08-14T00:54:20.964Z,11.05
2022-08-14T00:56:55.504Z,11.55
2022-08-14T00:59:28.392Z,11.07
2022-08-14T01:02:00.796Z,11.68
2022-08-14T01:04:52.366Z,11.55
2022-08-14T01:07:22.471Z,11.65
2022-08-14T01:09:59.168Z,11.75
2022-08-14T01:12:29.851Z,11.30
2022-08-14T01:15:09.756Z,11.55
2022-08-14T01:18:01.685Z,10.18
2022-08-14T01:20:49.366Z,10.50
2022-08-14T01:23:19.079Z,10.10
2022-08-14T01:25:51.444Z,10.02
2022-08-14T01:28:47.399Z,10.30
2022-08-14T01:31:15.691Z,10.15
2022-08-14T01:34:00.237Z,9.85
2022-08-14T01:36:39.745Z,10.07
2022-08-14T01:39:17.239Z,10.23
2022-08-14T01:41:53.567Z,10.43
2022-08-14T01:44:31.184Z,10.15
2022-08-14T01:47:05.659Z,10.00
2022-08-14T01:49:35.628Z,10.55
2022-08-14T01:52:34.228Z,10.07
2022-08-14T01:55:03.285Z,9.98
2022-08-14T01:57:55.259Z,10.13
2022-08-14T02:00:27.736Z,10.38
2022-08-14T02:02:57.628Z,10.50
2022-08-14T02:05:32.996Z,10.48
2022-08-14T02:08:09.007Z,10.35
2022-08-14T02:10:46.816Z,10.68
2022-08-14T02:13:16.927Z,10.15
2022-08-14T02:15:45.718Z,9.85
2022-08-14T02:18:16.427Z,9.82
2022-08-14T02:20:48.364Z,10.63
2022-08-14T02:23:28.990Z,9.48
2022-08-14T02:26:18.135Z,9.85
2022-08-14T02:28:59.623Z,9.70
2022-08-14T02:31:42.118Z,9.95
2022-08-14T02:34:22.003Z,9.98
2022-08-14T02:37:04.139Z,9.95
2022-08-14T02:39:36.114Z,9.75
2022-08-14T02:42:13.053Z,10.35
2022-08-14T02:44:48.784Z,10.25
2022-08-14T02:47:20.941Z,10.65
2022-08-14T02:49:50.721Z,9.68
2022-08-14T02:52:55.713Z,10.75
2022-08-14T02:55:11.949Z,10.88
2022-08-14T02:57:58.250Z,10.60
2022-08-14T03:00:35.533Z,10.95
2022-08-14T03:03:08.411Z,10.80
2022-08-14T03:05:41.254Z,11.10
2022-08-14T03:08:15.835Z,10.43
2022-08-14T03:10:48.950Z,10.35
2022-08-14T03:13:21.498Z,10.38
2022-08-14T03:15:57.879Z,10.55
2022-08-14T03:18:31.494Z,10.38
2022-08-14T03:21:02.921Z,10.20
2022-08-14T03:23:36.495Z,10.50
2022-08-14T03:26:12.989Z,11.20
2022-08-14T03:28:51.908Z,9.98
2022-08-14T03:31:27.771Z,10.45
2022-08-14T03:33:56.853Z,10.68
2022-08-14T03:37:37.493Z,10.63
2022-08-14T03:39:22.487Z,10.73
2022-08-14T03:41:54.635Z,10.63
2022-08-14T03:45:19.881Z,11.00
2022-08-14T03:47:12.419Z,10.43
2022-08-14T03:49:49.776Z,10.60
2022-08-14T03:52:37.947Z,10.32
2022-08-14T03:55:12.504Z,10.50
2022-08-14T03:57:41.123Z,10.30
2022-08-14T04:00:40.445Z,10.93
2022-08-14T04:03:02.428Z,10.93
2022-08-14T04:05:42.893Z,10.88
2022-08-14T04:08:22.967Z,11.07
2022-08-14T04:11:01.064Z,11.00
2022-08-14T04:13:34.025Z,10.88
2022-08-14T04:16:21.218Z,11.35
2022-08-14T04:18:54.140Z,10.75
2022-08-14T04:21:24.606Z,10.35
2022-08-14T04:23:57.388Z,10.88
2022-08-14T04:26:42.978Z,10.85
2022-08-14T04:29:15.288Z,10.88
2022-08-14T04:32:57.569Z,10.52
2022-08-14T04:34:35.145Z,10.30
2022-08-14T04:37:25.368Z,10.98
2022-08-14T04:40:13.536Z,10.88
2022-08-14T04:43:02.100Z,10.95
2022-08-14T04:45:38.751Z,11.25
2022-08-14T04:48:40.058Z,11.27
2022-08-14T04:51:08.906Z,11.40
2022-08-14T04:53:43.560Z,11.80
2022-08-14T04:56:30.994Z,11.57
2022-08-14T04:59:10.100Z,11.05
2022-08-14T05:01:48.772Z,11.73
2022-08-14T05:04:21.845Z,11.55
2022-08-14T05:06:53.472Z,11.57
2022-08-14T05:09:24.138Z,12.00
2022-08-14T05:11:53.091Z,12.00
2022-08-14T05:14:46.882Z,12.07
2022-08-14T05:17:12.253Z,12.65
2022-08-14T05:19:45.031Z,12.48
2022-08-14T05:22:28.200Z,12.77
2022-08-14T05:24:56.060Z,11.75
2022-08-14T05:27:24.147Z,13.60
2022-08-14T05:29:56.632Z,13.65
2022-08-14T05:32:26.947Z,13.18
2022-08-14T05:35:00.162Z,12.98
2022-08-14T05:37:30.938Z,13.48
2022-08-14T05:40:00.422Z,12.98
2022-08-14T05:42:31.945Z,14.10
2022-08-14T05:45:04.106Z,13.83
2022-08-14T05:47:34.024Z,13.65
2022-08-14T05:50:17.389Z,13.35
2022-08-14T05:52:48.236Z,13.88
2022-08-14T05:55:22.576Z,14.02
2022-08-14T05:57:59.784Z,13.95
2022-08-14T06:00:38.714Z,14.80
2022-08-14T06:03:16.942Z,14.50
2022-08-14T06:05:47.982Z,14.73
2022-08-14T06:08:36.494Z,15.32
2022-08-14T06:11:10.178Z,14.75
2022-08-14T06:13:45.184Z,14.20
2022-08-14T06:16:18.375Z,14.85
2022-08-14T06:18:52.502Z,14.65
2022-08-14T06:21:24.215Z,14.80
2022-08-14T06:23:52.164Z,14.98
2022-08-14T06:26:22.469Z,15.05
2022-08-14T06:28:51.970Z,14.70
2022-08-14T06:31:21.289Z,15.63
2022-08-14T06:35:10.818Z,14.65
2022-08-14T06:36:39.458Z,15.10
2022-08-14T06:39:10.056Z,16.13
2022-08-14T06:41:58.486Z,15.63
2022-08-14T06:44:30.538Z,15.30
2022-08-14T06:47:02.802Z,14.83
2022-08-14T06:49:43.510Z,15.07
2022-08-14T06:52:16.731Z,14.18
2022-08-14T06:54:46.030Z,13.88
2022-08-14T06:57:14.139Z,13.98
2022-08-14T06:59:43.121Z,13.35
2022-08-14T07:02:29.928Z,13.70
2022-08-14T07:05:20.889Z,13.35
2022-08-14T07:07:51.747Z,13.05
2022-08-14T07:10:22.309Z,13.32
2022-08-14T07:13:01.683Z,12.88
2022-08-14T07:15:33.899Z,13.88
2022-08-14T07:18:08.573Z,13.80
2022-08-14T07:20:37.043Z,13.60
2022-08-14T07:23:09.245Z,13.82
2022-08-14T07:25:48.668Z,13.68
2022-08-14T07:28:35.799Z,14.60
2022-08-14T07:31:12.037Z,14.57
2022-08-14T07:33:50.174Z,14.63
2022-08-14T07:36:27.225Z,14.30
2022-08-14T07:39:03.079Z,14.35
2022-08-14T07:41:42.518Z,15.60
2022-08-14T07:44:29.022Z,14.75
2022-08-14T07:46:59.474Z,14.82
2022-08-14T07:49:28.489Z,14.77
2022-08-14T07:51:56.981Z,15.18
2022-08-14T07:54:30.005Z,15.35
2022-08-14T07:57:12.227Z,14.55
2022-08-14T07:59:44.381Z,14.02
2022-08-14T08:02:18.456Z,13.88
2022-08-14T08:04:54.560Z,13.35
2022-08-14T08:07:30.702Z,12.77
2022-08-14T08:10:46.816Z,12.52
2022-08-14T08:13:14.339Z,13.20
2022-08-14T08:15:47.847Z,12.68
2022-08-14T08:18:20.539Z,13.18
2022-08-14T08:20:59.608Z,12.38
2022-08-14T08:23:34.458Z,12.93
2022-08-14T08:26:11.840Z,13.00
2022-08-14T08:28:43.724Z,13.50
2022-08-14T08:31:12.862Z,13.02
2022-08-14T08:33:43.618Z,12.80
2022-08-14T08:36:18.810Z,12.32
2022-08-14T08:39:18.872Z,12.30
2022-08-14T08:41:45.856Z,13.63
2022-08-14T08:44:33.152Z,13.00
2022-08-14T08:47:08.030Z,13.13
2022-08-14T08:49:48.192Z,12.88
2022-08-14T08:52:24.846Z,13.68
2022-08-14T08:54:57.186Z,13.15
2022-08-14T08:57:25.432Z,12.88
2022-08-14T08:59:54.945Z,12.30
2022-08-14T09:02:26.147Z,12.95
2022-08-14T09:05:03.765Z,13.05
2022-08-14T09:07:31.742Z,13.20
2022-08-14T09:10:00.751Z,13.35
2022-08-14T09:12:32.310Z,12.32
2022-08-14T09:15:04.216Z,12.38
2022-08-14T09:17:42.508Z,12.60
2022-08-14T09:20:12.583Z,12.40
2022-08-14T09:22:48.363Z,12.60
2022-08-14T09:25:59.110Z,12.75
2022-08-14T09:28:09.202Z,12.68
2022-08-14T09:30:50.203Z,12.88
2022-08-14T09:33:57.440Z,13.20
2022-08-14T09:36:49.232Z,13.18
2022-08-14T09:39:23.094Z,13.45
2022-08-14T09:42:21.772Z,13.05
2022-08-14T09:45:14.327Z,13.02
2022-08-14T09:47:42.391Z,12.95
2022-08-14T09:50:29.905Z,13.07
2022-08-14T09:53:03.917Z,12.75
2022-08-14T09:55:42.690Z,13.50
2022-08-14T09:58:19.188Z,13.00
2022-08-14T10:01:00.720Z,13.10
2022-08-14T10:03:46.828Z,13.00
2022-08-14T10:06:28.437Z,13.10
2022-08-14T10:09:12.029Z,14.00
2022-08-14T10:11:59.114Z,13.55
2022-08-14T10:14:35.841Z,13.95
2022-08-14T10:17:07.055Z,14.43
2022-08-14T10:19:47.430Z,14.73
2022-08-14T10:23:15.141Z,14.02
2022-08-14T10:25:16.067Z,14.27
2022-08-14T10:27:50.143Z,15.23
2022-08-14T10:30:33.424Z,13.75
2022-08-14T10:33:02.542Z,14.40
2022-08-14T10:35:41.521Z,14.43
2022-08-14T10:38:26.199Z,14.48
2022-08-14T10:40:59.351Z,14.23
2022-08-14T10:43:31.581Z,14.98
2022-08-14T10:46:21.732Z,14.68
2022-08-14T10:49:04.456Z,14.82
2022-08-14T10:51:39.871Z,15.23
2022-08-14T10:54:16.890Z,15.52
2022-08-14T10:57:15.464Z,15.57
2022-08-14T10:59:58.710Z,16.30
2022-08-14T11:02:44.526Z,15.48
2022-08-14T11:05:19.335Z,15.77
2022-08-14T11:07:57.069Z,16.17
2022-08-14T11:10:43.281Z,15.52
2022-08-14T11:13:18.803Z,16.83
2022-08-14T11:15:46.724Z,16.88
2022-08-14T11:18:20.567Z,15.88
2022-08-14T11:21:01.859Z,16.13
2022-08-14T11:23:38.440Z,16.40
2022-08-14T11:26:08.853Z,16.58
2022-08-14T11:28:47.053Z,16.73
2022-08-14T11:31:24.228Z,16.30
2022-08-14T11:33:56.884Z,16.77
2022-08-14T11:36:35.475Z,16.23
2022-08-14T11:39:33.690Z,15.90
2022-08-14T11:42:56.183Z,16.13
2022-08-14T11:45:04.517Z,15.90
2022-08-14T11:48:10.781Z,17.95
2022-08-14T11:50:36.332Z,16.38
2022-08-14T11:53:07.827Z,17.05
2022-08-14T11:55:38.861Z,16.38
2022-08-14T11:58:11.642Z,15.82
2022-08-14T12:00:57.259Z,16.83
2022-08-14T12:03:51.479Z,16.38
2022-08-14T12:06:29.290Z,15.68
2022-08-14T12:09:14.912Z,16.13
2022-08-14T12:11:47.312Z,15.55
2022-08-14T12:14:31.010Z,15.32
2022-08-14T12:17:12.695Z,16.75
2022-08-14T12:20:03.037Z,16.02
2022-08-14T12:22:36.062Z,15.20
2022-08-14T12:25:10.955Z,15.82
2022-08-14T12:27:52.719Z,15.38
2022-08-14T12:30:43.004Z,15.60
2022-08-14T12:33:30.861Z,15.48
2022-08-14T12:36:11.598Z,15.88
2022-08-14T12:41:22.169Z,15.02
2022-08-14T12:44:02.023Z,15.45
2022-08-14T12:49:17.079Z,14.73
2022-08-14T12:54:28.688Z,15.73
2022-08-14T12:57:20.193Z,15.93
2022-08-14T12:59:49.558Z,14.32
2022-08-14T13:02:27.159Z,14.85
2022-08-14T13:04:58.007Z,15.43
2022-08-14T13:07:32.060Z,14.20
2022-08-14T13:10:34.328Z,15.25
2022-08-14T13:13:12.997Z,15.30
2022-08-14T13:15:44.359Z,14.73
2022-08-14T13:18:17.090Z,14.85
2022-08-14T13:20:51.288Z,14.80
2022-08-14T13:23:31.720Z,14.90
2022-08-14T13:26:01.286Z,14.55
2022-08-14T13:28:34.116Z,14.93
2022-08-14T13:31:11.052Z,15.20
2022-08-14T13:33:41.263Z,15.38
2022-08-14T13:36:24.182Z,14.70
2022-08-14T13:39:00.741Z,15.10
2022-08-14T13:41:34.518Z,15.65
2022-08-14T13:44:04.637Z,15.10
2022-08-14T13:46:36.126Z,15.25
2022-08-14T13:49:04.242Z,14.60
2022-08-14T13:51:36.610Z,14.95
2022-08-14T13:54:10.891Z,15.25
2022-08-14T13:56:42.805Z,15.80
2022-08-14T13:59:11.764Z,15.18
2022-08-14T14:01:45.859Z,15.35
2022-08-14T14:04:23.236Z,15.30
2022-08-14T14:06:52.307Z,15.48
2022-08-14T14:09:32.732Z,14.68
2022-08-14T14:12:37.295Z,15.38
2022-08-14T14:14:56.587Z,15.40
2022-08-14T14:17:25.667Z,15.45
2022-08-14T14:19:58.329Z,15.68
2022-08-14T14:22:35.654Z,15.95
2022-08-14T14:25:19.469Z,15.70
2022-08-14T14:27:53.652Z,15.50
2022-08-14T14:30:53.429Z,15.90
2022-08-14T14:33:44.003Z,15.88
2022-08-14T14:36:04.985Z,15.85
2022-08-14T14:38:34.616Z,16.98
2022-08-14T14:41:05.757Z,16.50
2022-08-14T14:43:44.532Z,16.85
2022-08-14T14:46:14.591Z,16.73
2022-08-14T14:48:46.495Z,17.40
2022-08-14T14:51:22.530Z,16.13
2022-08-14T14:53:54.351Z,15.85
2022-08-14T14:56:51.156Z,17.15
2022-08-14T14:59:16.923Z,16.85
2022-08-14T15:01:50.457Z,16.52
2022-08-14T15:04:20.783Z,16.38
2022-08-14T15:06:50.210Z,17.23
2022-08-14T15:09:23.800Z,17.13
2022-08-14T15:11:51.741Z,17.50
2022-08-14T15:14:55.415Z,17.17
2022-08-14T15:17:09.247Z,17.02
2022-08-14T15:19:38.328Z,16.98
2022-08-14T15:22:10.432Z,18.08
2022-08-14T15:24:39.914Z,16.50
2022-08-14T15:27:08.456Z,17.48
2022-08-14T15:29:39.399Z,17.27
2022-08-14T15:32:11.485Z,17.27
2022-08-14T15:34:44.041Z,16.77
2022-08-14T15:37:16.907Z,16.90
2022-08-14T15:39:45.392Z,16.40
2022-08-14T15:42:16.394Z,16.15
2022-08-14T15:44:57.568Z,16.30
2022-08-14T15:47:29.713Z,16.55
2022-08-14T15:50:00.326Z,16.67
2022-08-14T15:52:35.062Z,16.38
2022-08-14T15:55:07.787Z,16.95
2022-08-14T15:57:36.633Z,17.20
2022-08-14T16:00:43.861Z,16.48
2022-08-14T16:03:18.128Z,16.60
2022-08-14T16:05:53.575Z,17.05
2022-08-14T16:08:27.464Z,16.50
2022-08-14T16:11:07.032Z,16.65
2022-08-14T16:13:43.783Z,16.70
2022-08-14T16:16:34.769Z,16.58
2022-08-14T16:19:03.237Z,16.38
2022-08-14T16:24:28.130Z,17.05
2022-08-14T16:27:00.966Z,16.90
2022-08-14T16:29:38.592Z,17.48
2022-08-14T16:32:33.028Z,17.63
2022-08-14T16:34:57.444Z,16.98
2022-08-14T16:37:30.378Z,17.30
2022-08-14T16:40:02.864Z,16.73
2022-08-14T16:40:23.943Z,16.98
2022-08-14T16:42:38.896Z,16.88
2022-08-14T16:45:26.494Z,17.10
2022-08-14T16:47:56.254Z,17.73
2022-08-14T16:50:42.982Z,17.23
2022-08-14T16:53:17.814Z,17.55
2022-08-14T16:55:53.272Z,17.38
2022-08-14T16:58:29.932Z,18.13
2022-08-14T17:01:16.370Z,17.58
2022-08-14T17:04:04.594Z,17.48
2022-08-14T17:06:45.986Z,18.08
2022-08-14T17:09:35.411Z,18.42
2022-08-14T17:12:28.579Z,38.83
2022-08-14T17:15:14.956Z,32.17
2022-08-14T17:17:49.913Z,20.17
2022-08-14T17:20:53.226Z,18.73
2022-08-14T17:23:13.616Z,19.45
2022-08-14T17:25:49.446Z,21.42
2022-08-14T17:28:52.039Z,33.78
2022-08-14T17:31:12.282Z,21.27
2022-08-14T17:33:51.771Z,24.45
2022-08-14T17:36:24.100Z,22.88
2022-08-14T17:39:08.740Z,27.00
2022-08-14T17:41:43.848Z,20.98
2022-08-14T17:44:34.129Z,20.58
2022-08-14T17:47:18.131Z,19.38
2022-08-14T17:49:52.257Z,20.30
2022-08-14T17:52:36.249Z,19.20
2022-08-14T17:55:12.533Z,12.50
2022-08-14T17:57:42.548Z,10.43
2022-08-14T18:00:14.718Z,12.15
2022-08-14T18:02:50.618Z,9.80
2022-08-14T18:05:23.774Z,13.38
2022-08-14T18:08:32.572Z,15.07
2022-08-14T18:10:56.872Z,19.73
2022-08-14T18:13:50.066Z,21.75
2022-08-14T18:16:19.714Z,22.42
2022-08-14T18:18:49.757Z,24.92
2022-08-14T18:21:23.924Z,24.98
2022-08-14T18:24:28.274Z,23.55
2022-08-14T18:27:22.827Z,22.45
2022-08-14T18:29:58.042Z,25.83
2022-08-14T18:32:31.669Z,27.17
2022-08-14T18:35:20.780Z,24.38
2022-08-14T18:37:56.108Z,26.20
2022-08-14T18:40:35.056Z,26.15
2022-08-14T18:43:06.244Z,26.40
2022-08-14T18:45:41.436Z,26.58
2022-08-14T18:48:16.523Z,27.33
2022-08-14T18:51:01.066Z,28.45
2022-08-14T18:53:34.255Z,26.58
2022-08-14T18:56:09.786Z,25.65
2022-08-14T18:58:57.289Z,25.15
2022-08-14T19:01:30.083Z,27.02
2022-08-14T19:04:01.481Z,27.20
2022-08-14T19:06:38.144Z,25.48
2022-08-14T19:09:06.179Z,27.75
2022-08-14T19:11:40.542Z,26.30
2022-08-14T19:14:12.758Z,25.40
2022-08-14T19:16:43.215Z,24.75
2022-08-14T19:19:23.942Z,23.92
2022-08-14T19:21:56.906Z,25.00
2022-08-14T19:24:43.886Z,26.75
2022-08-14T19:27:24.052Z,25.08
2022-08-14T19:30:20.431Z,24.58
2022-08-14T19:32:57.026Z,23.90
2022-08-14T19:35:48.819Z,24.23
2022-08-14T19:38:57.244Z,23.55
2022-08-14T19:41:35.522Z,23.38
2022-08-14T19:44:19.057Z,23.77
2022-08-14T19:47:01.486Z,22.83
2022-08-14T19:50:07.724Z,23.75
2022-08-14T19:52:29.729Z,24.40
2022-08-14T19:54:59.401Z,25.40
2022-08-14T19:57:31.807Z,26.85
2022-08-14T20:00:28.579Z,28.08
2022-08-14T20:03:10.126Z,32.42
2022-08-14T20:05:42.967Z,26.75
2022-08-14T20:09:05.321Z,25.10
2022-08-14T20:12:00.947Z,26.60
2022-08-14T20:14:20.654Z,29.50
2022-08-14T20:17:01.935Z,26.02
2022-08-14T20:19:37.197Z,25.83
2022-08-14T20:22:34.997Z,26.25
2022-08-14T20:24:57.742Z,27.40
2022-08-14T20:27:33.479Z,26.10
2022-08-14T20:30:33.758Z,27.33
2022-08-14T20:33:07.747Z,27.00
2022-08-14T20:35:42.056Z,28.15
2022-08-14T20:38:31.635Z,29.30
2022-08-14T20:41:10.642Z,28.15
2022-08-14T20:44:00.798Z,29.70
2022-08-14T20:46:38.362Z,30.30
2022-08-14T20:49:10.969Z,31.10
2022-08-14T20:51:59.544Z,32.15
2022-08-14T20:54:34.041Z,33.03
2022-08-14T20:57:09.514Z,33.67
2022-08-14T20:59:53.192Z,36.78
2022-08-14T21:02:49.734Z,32.97
2022-08-14T21:05:33.741Z,32.55
2022-08-14T21:08:08.400Z,32.72
2022-08-14T21:10:44.101Z,35.08
2022-08-14T21:13:27.509Z,34.53
2022-08-14T21:16:34.197Z,34.88
2022-08-14T21:18:58.882Z,37.20
2022-08-14T21:21:40.856Z,34.08
2022-08-14T21:24:38.614Z,35.45
2022-08-14T21:27:12.762Z,35.45
2022-08-14T21:29:55.023Z,35.10
2022-08-14T21:32:47.087Z,38.25
2022-08-14T21:35:26.275Z,38.45
2022-08-14T21:37:54.275Z,38.63
2022-08-14T21:40:42.170Z,36.60
2022-08-14T21:43:17.792Z,38.22
2022-08-14T21:45:58.794Z,38.25
2022-08-14T21:48:32.339Z,37.45
2022-08-14T21:51:53.257Z,36.38
2022-08-14T21:53:59.919Z,38.78
2022-08-14T21:56:38.369Z,38.97
2022-08-14T21:59:17.748Z,38.45
2022-08-14T22:02:00.515Z,39.05
2022-08-14T22:04:40.764Z,39.25
2022-08-14T22:07:13.217Z,39.88
2022-08-14T22:09:54.702Z,37.50
2022-08-14T22:12:58.331Z,39.00
2022-08-14T22:15:15.386Z,37.05
2022-08-14T22:17:44.382Z,39.03
2022-08-14T22:20:16.565Z,39.30
2022-08-14T22:22:44.750Z,37.90
2022-08-14T22:25:16.189Z,38.03
2022-08-14T22:27:55.776Z,36.08
2022-08-14T22:30:25.253Z,36.78
2022-08-14T22:32:56.337Z,36.70
2022-08-14T22:35:26.715Z,36.80
2022-08-14T22:38:35.929Z,37.83
2022-08-14T22:41:08.574Z,37.63
2022-08-14T22:43:35.297Z,37.33
2022-08-14T22:46:14.526Z,37.45
2022-08-14T22:48:45.317Z,37.63
2022-08-14T22:51:17.676Z,39.65
2022-08-14T22:53:48.477Z,39.92
2022-08-14T22:56:20.559Z,40.00
2022-08-14T22:58:53.961Z,41.10
2022-08-14T23:01:56.239Z,41.40
2022-08-14T23:04:34.442Z,41.08
2022-08-14T23:07:07.455Z,40.10
2022-08-14T23:09:56.853Z,39.72
2022-08-14T23:12:31.769Z,41.60
2022-08-14T23:15:03.985Z,40.00
2022-08-14T23:17:39.072Z,40.88
2022-08-14T23:20:19.139Z,42.78
2022-08-14T23:22:51.264Z,40.47
2022-08-14T23:25:44.668Z,38.65
2022-08-14T23:28:34.964Z,41.20
2022-08-14T23:33:42.006Z,39.30
2022-08-14T23:36:32.184Z,38.20
2022-08-14T23:39:07.184Z,38.83
2022-08-14T23:41:46.383Z,39.17
2022-08-14T23:44:23.765Z,37.90
2022-08-14T23:46:56.636Z,36.97
2022-08-14T23:49:28.099Z,36.90
2022-08-14T23:52:50.071Z,39.42
2022-08-14T23:55:05.674Z,38.97
2022-08-14T23:57:44.100Z,38.42
